Catalina Duke — WDI2784 — position and weather

sailwx.info

Track history (hours):
 
Tides and Currents Weather Stations Pressure Air Temp Water Temp Dewpoint Dewpoint Depression Visibility Wind Speed Wind Dir Waves Ship Positions

Catalina Duke

Owner: Catalina Classic Cruises, San Diego, CA. More information available from US FCC via Universal Licensing System and Coast Guard Vessel Documentation Center.

Last reported at 2018-Feb-20 23:15 UTC. Time now 2018-Feb-21 13:17 UTC.
Position N 33°21' W 118°19'.

Length 25 m.

Type: Passenger vessel. MMSI: 367681720.

Date/timePositionNaut miles runAvg speedWind from/ knotsBaromVisibWave heightAir tempDewpointWater temp
2018-Feb-20 23:15N 33°21' W 118°19'0 0.0
2018-Feb-20 21:27N 33°21' W 118°19'0 0.1
2018-Feb-20 19:43N 33°21' W 118°19'0 0.1
2018-Feb-20 18:19N 33°21' W 118°19'0 0.1
2018-Feb-20 17:03N 33°21' W 118°19'15 6.1
2018-Feb-20 14:32N 33°36' W 118°16'013.4
2018-Feb-20 14:30N 33°37' W 118°16'612.4
2018-Feb-20 14:00N 33°43' W 118°16'3 6.3
2018-Feb-20 13:30N 33°46' W 118°15'  
2018-Feb-16 15:22N 33°46' W 118°15'  
2018-Feb-14 02:15N 33°46' W 118°15'2 6.1
2018-Feb-14 02:00N 33°45' W 118°16'5 9.8
2018-Feb-14 01:30N 33°40' W 118°16'19 2.2
2018-Feb-13 16:39N 33°21' W 118°19'0 0.0
2018-Feb-12 20:02N 33°21' W 118°19'0 0.5
2018-Feb-12 19:39N 33°21' W 118°19'0 0.5
2018-Feb-12 19:10N 33°21' W 118°19'0 0.6
2018-Feb-12 18:49N 33°21' W 118°19'0 0.2
2018-Feb-12 18:25N 33°21' W 118°19'14 3.9
2018-Feb-12 14:40N 33°35' W 118°16'213.3
2018-Feb-12 14:30N 33°37' W 118°16'611.2
2018-Feb-12 14:01N 33°43' W 118°16'3 5.9
2018-Feb-12 13:30N 33°46' W 118°15'  
Track history (hours):
 
Tides and Currents Weather Stations Pressure Air Temp Water Temp Dewpoint Dewpoint Depression Visibility Wind Speed Wind Dir Waves Ship Positions

Catalina Duke

Owner: Catalina Classic Cruises, San Diego, CA. More information available from US FCC via Universal Licensing System and Coast Guard Vessel Documentation Center.

Last reported at 2018-Feb-20 23:15 UTC. Time now 2018-Feb-21 13:17 UTC.
Position N 33°21' W 118°19'.

Length 25 m.

Type: Passenger vessel. MMSI: 367681720.

Date/timePositionNaut miles runAvg speedWind from/ knotsBaromVisibWave heightAir tempDewpointWater temp
2018-Feb-20 23:15N 33°21' W 118°19'0 0.0
2018-Feb-20 21:27N 33°21' W 118°19'0 0.1
2018-Feb-20 19:43N 33°21' W 118°19'0 0.1
2018-Feb-20 18:19N 33°21' W 118°19'0 0.1
2018-Feb-20 17:03N 33°21' W 118°19'15 6.1
2018-Feb-20 14:32N 33°36' W 118°16'013.4
2018-Feb-20 14:30N 33°37' W 118°16'612.4
2018-Feb-20 14:00N 33°43' W 118°16'3 6.3
2018-Feb-20 13:30N 33°46' W 118°15'  
2018-Feb-16 15:22N 33°46' W 118°15'  
2018-Feb-14 02:15N 33°46' W 118°15'2 6.1
2018-Feb-14 02:00N 33°45' W 118°16'5 9.8
2018-Feb-14 01:30N 33°40' W 118°16'19 2.2
2018-Feb-13 16:39N 33°21' W 118°19'0 0.0
2018-Feb-12 20:02N 33°21' W 118°19'0 0.5
2018-Feb-12 19:39N 33°21' W 118°19'0 0.5
2018-Feb-12 19:10N 33°21' W 118°19'0 0.6
2018-Feb-12 18:49N 33°21' W 118°19'0 0.2
2018-Feb-12 18:25N 33°21' W 118°19'14 3.9
2018-Feb-12 14:40N 33°35' W 118°16'213.3
2018-Feb-12 14:30N 33°37' W 118°16'611.2
2018-Feb-12 14:01N 33°43' W 118°16'3 5.9
2018-Feb-12 13:30N 33°46' W 118°15'  

Dump ship's entire track history